sensor_id;sensor_type;location;lat;lon;timestamp;P1;durP1;ratioP1;P2;durP2;ratioP2
9700;SDS011;4889;48.620;7.892;2023-06-22T00:01:15;9.07;;;2.10;;
9700;SDS011;4889;48.620;7.892;2023-06-22T00:03:41;0.60;;;0.20;;
9700;SDS011;4889;48.620;7.892;2023-06-22T00:06:06;0.60;;;0.40;;
9700;SDS011;4889;48.620;7.892;2023-06-22T00:08:31;0.60;;;0.30;;
9700;SDS011;4889;48.620;7.892;2023-06-22T00:10:56;0.60;;;0.30;;
9700;SDS011;4889;48.620;7.892;2023-06-22T00:13:22;0.60;;;0.30;;
9700;SDS011;4889;48.620;7.892;2023-06-22T00:15:47;0.60;;;0.30;;
9700;SDS011;4889;48.620;7.892;2023-06-22T00:18:12;0.60;;;0.30;;
9700;SDS011;4889;48.620;7.892;2023-06-22T00:20:38;0.60;;;0.30;;
9700;SDS011;4889;48.620;7.892;2023-06-22T00:23:04;0.60;;;0.30;;
9700;SDS011;4889;48.620;7.892;2023-06-22T00:25:33;0.60;;;0.30;;
9700;SDS011;4889;48.620;7.892;2023-06-22T00:27:58;0.60;;;0.30;;
9700;SDS011;4889;48.620;7.892;2023-06-22T00:30:23;0.60;;;0.20;;
9700;SDS011;4889;48.620;7.892;2023-06-22T00:32:48;0.60;;;0.30;;
9700;SDS011;4889;48.620;7.892;2023-06-22T00:35:14;0.60;;;0.30;;
9700;SDS011;4889;48.620;7.892;2023-06-22T00:37:39;0.60;;;0.30;;
9700;SDS011;4889;48.620;7.892;2023-06-22T00:40:07;0.60;;;0.30;;
9700;SDS011;4889;48.620;7.892;2023-06-22T00:42:33;0.60;;;0.20;;
9700;SDS011;4889;48.620;7.892;2023-06-22T00:44:59;0.60;;;0.23;;
9700;SDS011;4889;48.620;7.892;2023-06-22T00:47:24;0.60;;;0.23;;
9700;SDS011;4889;48.620;7.892;2023-06-22T00:49:49;0.60;;;0.30;;
9700;SDS011;4889;48.620;7.892;2023-06-22T00:52:16;0.60;;;0.20;;
9700;SDS011;4889;48.620;7.892;2023-06-22T00:54:45;0.60;;;0.30;;
9700;SDS011;4889;48.620;7.892;2023-06-22T00:57:14;0.60;;;0.30;;
9700;SDS011;4889;48.620;7.892;2023-06-22T00:59:47;0.60;;;0.30;;
9700;SDS011;4889;48.620;7.892;2023-06-22T01:02:12;0.60;;;0.20;;
9700;SDS011;4889;48.620;7.892;2023-06-22T01:04:38;0.60;;;0.30;;
9700;SDS011;4889;48.620;7.892;2023-06-22T01:09:41;0.60;;;0.30;;
9700;SDS011;4889;48.620;7.892;2023-06-22T01:12:11;0.60;;;0.20;;
9700;SDS011;4889;48.620;7.892;2023-06-22T01:14:41;0.60;;;0.20;;
9700;SDS011;4889;48.620;7.892;2023-06-22T01:17:08;0.60;;;0.20;;
9700;SDS011;4889;48.620;7.892;2023-06-22T01:22:00;0.60;;;0.30;;
9700;SDS011;4889;48.620;7.892;2023-06-22T01:27:12;0.60;;;0.30;;
9700;SDS011;4889;48.620;7.892;2023-06-22T01:29:39;0.60;;;0.30;;
9700;SDS011;4889;48.620;7.892;2023-06-22T01:32:06;0.60;;;0.30;;
9700;SDS011;4889;48.620;7.892;2023-06-22T01:34:31;0.60;;;0.30;;
9700;SDS011;4889;48.620;7.892;2023-06-22T01:36:58;0.60;;;0.30;;
9700;SDS011;4889;48.620;7.892;2023-06-22T01:39:23;0.60;;;0.30;;
9700;SDS011;4889;48.620;7.892;2023-06-22T01:41:49;0.60;;;0.30;;
9700;SDS011;4889;48.620;7.892;2023-06-22T01:44:14;0.60;;;0.30;;
9700;SDS011;4889;48.620;7.892;2023-06-22T01:46:40;0.60;;;0.30;;
9700;SDS011;4889;48.620;7.892;2023-06-22T01:49:05;0.60;;;0.30;;
9700;SDS011;4889;48.620;7.892;2023-06-22T01:51:31;0.60;;;0.27;;
9700;SDS011;4889;48.620;7.892;2023-06-22T01:53:56;0.60;;;0.30;;
9700;SDS011;4889;48.620;7.892;2023-06-22T01:56:21;0.60;;;0.30;;
9700;SDS011;4889;48.620;7.892;2023-06-22T02:01:50;0.60;;;0.30;;
9700;SDS011;4889;48.620;7.892;2023-06-22T02:04:24;2.30;;;2.10;;
9700;SDS011;4889;48.620;7.892;2023-06-22T02:06:51;0.60;;;0.30;;
9700;SDS011;4889;48.620;7.892;2023-06-22T02:09:17;0.60;;;0.30;;
9700;SDS011;4889;48.620;7.892;2023-06-22T02:11:45;0.60;;;0.23;;
9700;SDS011;4889;48.620;7.892;2023-06-22T02:14:11;0.70;;;0.50;;
9700;SDS011;4889;48.620;7.892;2023-06-22T02:16:38;0.60;;;0.27;;
9700;SDS011;4889;48.620;7.892;2023-06-22T02:19:03;0.60;;;0.20;;
9700;SDS011;4889;48.620;7.892;2023-06-22T02:21:28;0.60;;;0.30;;
9700;SDS011;4889;48.620;7.892;2023-06-22T02:23:54;0.60;;;0.30;;
9700;SDS011;4889;48.620;7.892;2023-06-22T02:26:19;0.60;;;0.30;;
9700;SDS011;4889;48.620;7.892;2023-06-22T02:28:44;0.60;;;0.30;;
9700;SDS011;4889;48.620;7.892;2023-06-22T02:31:11;0.60;;;0.30;;
9700;SDS011;4889;48.620;7.892;2023-06-22T02:33:36;0.60;;;0.27;;
9700;SDS011;4889;48.620;7.892;2023-06-22T02:36:19;0.60;;;0.30;;
9700;SDS011;4889;48.620;7.892;2023-06-22T02:38:47;0.60;;;0.20;;
9700;SDS011;4889;48.620;7.892;2023-06-22T02:41:13;0.60;;;0.23;;
9700;SDS011;4889;48.620;7.892;2023-06-22T02:43:42;0.60;;;0.30;;
9700;SDS011;4889;48.620;7.892;2023-06-22T02:46:08;0.60;;;0.30;;
9700;SDS011;4889;48.620;7.892;2023-06-22T02:48:33;0.60;;;0.30;;
9700;SDS011;4889;48.620;7.892;2023-06-22T02:50:58;0.60;;;0.20;;
9700;SDS011;4889;48.620;7.892;2023-06-22T02:53:24;0.60;;;0.30;;
9700;SDS011;4889;48.620;7.892;2023-06-22T02:55:49;0.60;;;0.23;;
9700;SDS011;4889;48.620;7.892;2023-06-22T02:58:14;0.60;;;0.27;;
9700;SDS011;4889;48.620;7.892;2023-06-22T03:00:39;0.60;;;0.27;;
9700;SDS011;4889;48.620;7.892;2023-06-22T03:03:05;0.60;;;0.30;;
9700;SDS011;4889;48.620;7.892;2023-06-22T03:05:30;0.60;;;0.30;;
9700;SDS011;4889;48.620;7.892;2023-06-22T03:07:55;0.60;;;0.30;;
9700;SDS011;4889;48.620;7.892;2023-06-22T03:10:20;0.60;;;0.23;;
9700;SDS011;4889;48.620;7.892;2023-06-22T03:12:54;0.60;;;0.30;;
9700;SDS011;4889;48.620;7.892;2023-06-22T03:15:19;0.60;;;0.27;;
9700;SDS011;4889;48.620;7.892;2023-06-22T03:17:45;0.60;;;0.30;;
9700;SDS011;4889;48.620;7.892;2023-06-22T03:20:10;0.60;;;0.30;;
9700;SDS011;4889;48.620;7.892;2023-06-22T03:22:37;0.60;;;0.30;;
9700;SDS011;4889;48.620;7.892;2023-06-22T03:25:02;0.60;;;0.30;;
9700;SDS011;4889;48.620;7.892;2023-06-22T03:27:28;0.60;;;0.20;;
9700;SDS011;4889;48.620;7.892;2023-06-22T03:29:53;0.60;;;0.30;;
9700;SDS011;4889;48.620;7.892;2023-06-22T03:32:18;0.60;;;0.23;;
9700;SDS011;4889;48.620;7.892;2023-06-22T03:34:43;0.60;;;0.20;;
9700;SDS011;4889;48.620;7.892;2023-06-22T03:37:12;0.60;;;0.30;;
9700;SDS011;4889;48.620;7.892;2023-06-22T03:39:37;0.60;;;0.30;;
9700;SDS011;4889;48.620;7.892;2023-06-22T03:42:02;0.60;;;0.27;;
9700;SDS011;4889;48.620;7.892;2023-06-22T03:44:27;0.60;;;0.30;;
9700;SDS011;4889;48.620;7.892;2023-06-22T03:46:53;0.60;;;0.23;;
9700;SDS011;4889;48.620;7.892;2023-06-22T03:49:18;0.60;;;0.30;;
9700;SDS011;4889;48.620;7.892;2023-06-22T03:51:43;0.60;;;0.20;;
9700;SDS011;4889;48.620;7.892;2023-06-22T03:54:09;0.60;;;0.30;;
9700;SDS011;4889;48.620;7.892;2023-06-22T03:56:34;0.60;;;0.20;;
9700;SDS011;4889;48.620;7.892;2023-06-22T03:58:59;0.60;;;0.20;;
9700;SDS011;4889;48.620;7.892;2023-06-22T04:01:24;0.60;;;0.30;;
9700;SDS011;4889;48.620;7.892;2023-06-22T04:03:50;0.60;;;0.20;;
9700;SDS011;4889;48.620;7.892;2023-06-22T04:06:15;0.60;;;0.20;;
9700;SDS011;4889;48.620;7.892;2023-06-22T04:08:40;0.60;;;0.20;;
9700;SDS011;4889;48.620;7.892;2023-06-22T04:11:06;0.60;;;0.30;;
9700;SDS011;4889;48.620;7.892;2023-06-22T04:13:31;0.60;;;0.20;;
9700;SDS011;4889;48.620;7.892;2023-06-22T04:15:56;0.60;;;0.30;;
9700;SDS011;4889;48.620;7.892;2023-06-22T04:18:21;0.60;;;0.30;;
9700;SDS011;4889;48.620;7.892;2023-06-22T04:20:47;0.60;;;0.30;;
9700;SDS011;4889;48.620;7.892;2023-06-22T04:23:12;4.20;;;0.77;;
9700;SDS011;4889;48.620;7.892;2023-06-22T04:25:37;0.60;;;0.30;;
9700;SDS011;4889;48.620;7.892;2023-06-22T04:28:03;0.60;;;0.30;;
9700;SDS011;4889;48.620;7.892;2023-06-22T04:30:29;0.60;;;0.30;;
9700;SDS011;4889;48.620;7.892;2023-06-22T04:32:56;0.60;;;0.30;;
9700;SDS011;4889;48.620;7.892;2023-06-22T04:35:22;0.60;;;0.30;;
9700;SDS011;4889;48.620;7.892;2023-06-22T04:37:48;0.60;;;0.30;;
9700;SDS011;4889;48.620;7.892;2023-06-22T04:40:14;0.63;;;0.37;;
9700;SDS011;4889;48.620;7.892;2023-06-22T04:42:40;0.60;;;0.30;;
9700;SDS011;4889;48.620;7.892;2023-06-22T04:45:05;0.60;;;0.20;;
9700;SDS011;4889;48.620;7.892;2023-06-22T04:47:30;0.60;;;0.20;;
9700;SDS011;4889;48.620;7.892;2023-06-22T04:49:56;0.60;;;0.30;;
9700;SDS011;4889;48.620;7.892;2023-06-22T04:52:21;0.60;;;0.23;;
9700;SDS011;4889;48.620;7.892;2023-06-22T04:54:46;0.60;;;0.30;;
9700;SDS011;4889;48.620;7.892;2023-06-22T04:57:20;0.60;;;0.30;;
9700;SDS011;4889;48.620;7.892;2023-06-22T04:59:45;0.60;;;0.30;;
9700;SDS011;4889;48.620;7.892;2023-06-22T05:02:10;0.60;;;0.30;;
9700;SDS011;4889;48.620;7.892;2023-06-22T05:04:36;0.80;;;0.80;;
9700;SDS011;4889;48.620;7.892;2023-06-22T05:07:03;0.60;;;0.30;;
9700;SDS011;4889;48.620;7.892;2023-06-22T05:09:29;0.80;;;0.73;;
9700;SDS011;4889;48.620;7.892;2023-06-22T05:11:54;0.60;;;0.23;;
9700;SDS011;4889;48.620;7.892;2023-06-22T05:14:21;0.60;;;0.30;;
9700;SDS011;4889;48.620;7.892;2023-06-22T05:16:48;0.60;;;0.30;;
9700;SDS011;4889;48.620;7.892;2023-06-22T05:19:13;0.60;;;0.30;;
9700;SDS011;4889;48.620;7.892;2023-06-22T05:21:38;0.60;;;0.20;;
9700;SDS011;4889;48.620;7.892;2023-06-22T05:24:04;0.60;;;0.30;;
9700;SDS011;4889;48.620;7.892;2023-06-22T05:26:30;0.60;;;0.30;;
9700;SDS011;4889;48.620;7.892;2023-06-22T05:28:55;0.60;;;0.20;;
9700;SDS011;4889;48.620;7.892;2023-06-22T05:31:21;0.60;;;0.30;;
9700;SDS011;4889;48.620;7.892;2023-06-22T05:33:47;0.60;;;0.30;;
9700;SDS011;4889;48.620;7.892;2023-06-22T05:36:13;0.60;;;0.30;;
9700;SDS011;4889;48.620;7.892;2023-06-22T05:38:38;0.60;;;0.30;;
9700;SDS011;4889;48.620;7.892;2023-06-22T05:41:04;0.60;;;0.30;;
9700;SDS011;4889;48.620;7.892;2023-06-22T05:43:29;1.00;;;0.30;;
9700;SDS011;4889;48.620;7.892;2023-06-22T05:45:54;0.60;;;0.30;;
9700;SDS011;4889;48.620;7.892;2023-06-22T05:48:20;0.60;;;0.30;;
9700;SDS011;4889;48.620;7.892;2023-06-22T05:50:45;0.60;;;0.30;;
9700;SDS011;4889;48.620;7.892;2023-06-22T05:53:10;0.60;;;0.30;;
9700;SDS011;4889;48.620;7.892;2023-06-22T05:55:35;0.60;;;0.30;;
9700;SDS011;4889;48.620;7.892;2023-06-22T05:58:00;0.60;;;0.30;;
9700;SDS011;4889;48.620;7.892;2023-06-22T06:00:26;0.60;;;0.20;;
9700;SDS011;4889;48.620;7.892;2023-06-22T06:02:51;0.60;;;0.30;;
9700;SDS011;4889;48.620;7.892;2023-06-22T06:05:16;0.60;;;0.30;;
9700;SDS011;4889;48.620;7.892;2023-06-22T06:07:42;0.60;;;0.30;;
9700;SDS011;4889;48.620;7.892;2023-06-22T06:10:08;0.60;;;0.30;;
9700;SDS011;4889;48.620;7.892;2023-06-22T06:12:33;0.60;;;0.30;;
9700;SDS011;4889;48.620;7.892;2023-06-22T06:14:58;0.60;;;0.30;;
9700;SDS011;4889;48.620;7.892;2023-06-22T06:17:23;0.60;;;0.30;;
9700;SDS011;4889;48.620;7.892;2023-06-22T06:19:49;0.60;;;0.30;;
9700;SDS011;4889;48.620;7.892;2023-06-22T06:22:14;0.60;;;0.30;;
9700;SDS011;4889;48.620;7.892;2023-06-22T06:24:39;0.60;;;0.30;;
9700;SDS011;4889;48.620;7.892;2023-06-22T06:27:04;0.60;;;0.27;;
9700;SDS011;4889;48.620;7.892;2023-06-22T06:29:31;0.60;;;0.23;;
9700;SDS011;4889;48.620;7.892;2023-06-22T06:31:56;0.60;;;0.27;;
9700;SDS011;4889;48.620;7.892;2023-06-22T06:34:22;0.60;;;0.30;;
9700;SDS011;4889;48.620;7.892;2023-06-22T06:36:47;0.60;;;0.30;;
9700;SDS011;4889;48.620;7.892;2023-06-22T06:39:12;0.60;;;0.30;;
9700;SDS011;4889;48.620;7.892;2023-06-22T06:41:37;0.60;;;0.30;;
9700;SDS011;4889;48.620;7.892;2023-06-22T06:44:03;0.60;;;0.30;;
9700;SDS011;4889;48.620;7.892;2023-06-22T06:46:28;0.60;;;0.30;;
9700;SDS011;4889;48.620;7.892;2023-06-22T06:48:53;0.60;;;0.30;;
9700;SDS011;4889;48.620;7.892;2023-06-22T06:51:18;0.60;;;0.27;;
9700;SDS011;4889;48.620;7.892;2023-06-22T06:53:44;0.60;;;0.23;;
9700;SDS011;4889;48.620;7.892;2023-06-22T06:56:09;0.70;;;0.40;;
9700;SDS011;4889;48.620;7.892;2023-06-22T06:58:35;0.60;;;0.30;;
9700;SDS011;4889;48.620;7.892;2023-06-22T07:01:01;0.60;;;0.30;;
9700;SDS011;4889;48.620;7.892;2023-06-22T07:03:27;0.60;;;0.30;;
9700;SDS011;4889;48.620;7.892;2023-06-22T07:05:52;0.60;;;0.25;;
9700;SDS011;4889;48.620;7.892;2023-06-22T07:08:18;0.60;;;0.30;;
9700;SDS011;4889;48.620;7.892;2023-06-22T07:10:43;0.60;;;0.30;;
9700;SDS011;4889;48.620;7.892;2023-06-22T07:13:08;0.60;;;0.30;;
9700;SDS011;4889;48.620;7.892;2023-06-22T07:15:33;0.80;;;0.60;;
9700;SDS011;4889;48.620;7.892;2023-06-22T07:17:58;0.60;;;0.30;;
9700;SDS011;4889;48.620;7.892;2023-06-22T07:20:24;0.60;;;0.30;;
9700;SDS011;4889;48.620;7.892;2023-06-22T07:22:49;0.60;;;0.30;;
9700;SDS011;4889;48.620;7.892;2023-06-22T07:25:14;0.60;;;0.20;;
9700;SDS011;4889;48.620;7.892;2023-06-22T07:27:43;0.60;;;0.30;;
9700;SDS011;4889;48.620;7.892;2023-06-22T07:30:09;0.60;;;0.30;;
9700;SDS011;4889;48.620;7.892;2023-06-22T07:32:34;0.70;;;0.68;;
9700;SDS011;4889;48.620;7.892;2023-06-22T07:34:59;0.60;;;0.30;;
9700;SDS011;4889;48.620;7.892;2023-06-22T07:37:25;0.60;;;0.30;;
9700;SDS011;4889;48.620;7.892;2023-06-22T07:39:52;1.20;;;0.50;;
9700;SDS011;4889;48.620;7.892;2023-06-22T07:42:18;2.95;;;1.70;;
9700;SDS011;4889;48.620;7.892;2023-06-22T07:44:44;0.60;;;0.30;;
9700;SDS011;4889;48.620;7.892;2023-06-22T07:47:09;1.13;;;0.98;;
9700;SDS011;4889;48.620;7.892;2023-06-22T07:49:35;1.45;;;0.50;;
9700;SDS011;4889;48.620;7.892;2023-06-22T07:52:00;4.90;;;1.65;;
9700;SDS011;4889;48.620;7.892;2023-06-22T07:54:26;0.60;;;0.30;;
9700;SDS011;4889;48.620;7.892;2023-06-22T07:56:51;1.30;;;1.20;;
9700;SDS011;4889;48.620;7.892;2023-06-22T07:59:18;0.60;;;0.40;;
9700;SDS011;4889;48.620;7.892;2023-06-22T08:01:43;0.60;;;0.30;;
9700;SDS011;4889;48.620;7.892;2023-06-22T08:04:09;0.60;;;0.30;;
9700;SDS011;4889;48.620;7.892;2023-06-22T08:06:34;0.60;;;0.30;;
9700;SDS011;4889;48.620;7.892;2023-06-22T08:08:59;0.60;;;0.30;;
9700;SDS011;4889;48.620;7.892;2023-06-22T08:11:24;0.60;;;0.50;;
9700;SDS011;4889;48.620;7.892;2023-06-22T08:13:50;0.60;;;0.30;;
9700;SDS011;4889;48.620;7.892;2023-06-22T08:16:16;0.60;;;0.30;;
9700;SDS011;4889;48.620;7.892;2023-06-22T08:18:41;0.80;;;0.73;;
9700;SDS011;4889;48.620;7.892;2023-06-22T08:21:06;0.60;;;0.32;;
9700;SDS011;4889;48.620;7.892;2023-06-22T08:23:31;0.60;;;0.20;;
9700;SDS011;4889;48.620;7.892;2023-06-22T08:25:57;0.70;;;0.40;;
9700;SDS011;4889;48.620;7.892;2023-06-22T08:28:22;1.60;;;1.20;;
9700;SDS011;4889;48.620;7.892;2023-06-22T08:30:48;8.32;;;2.47;;
9700;SDS011;4889;48.620;7.892;2023-06-22T08:33:14;1.92;;;1.50;;
9700;SDS011;4889;48.620;7.892;2023-06-22T08:35:39;0.60;;;0.30;;
9700;SDS011;4889;48.620;7.892;2023-06-22T08:38:04;5.25;;;2.55;;
9700;SDS011;4889;48.620;7.892;2023-06-22T08:40:29;1.17;;;0.95;;
9700;SDS011;4889;48.620;7.892;2023-06-22T08:42:55;2.60;;;1.58;;
9700;SDS011;4889;48.620;7.892;2023-06-22T08:45:20;3.20;;;1.98;;
9700;SDS011;4889;48.620;7.892;2023-06-22T08:47:45;1.30;;;0.75;;
9700;SDS011;4889;48.620;7.892;2023-06-22T08:50:11;2.85;;;2.13;;
9700;SDS011;4889;48.620;7.892;2023-06-22T08:52:37;3.17;;;2.42;;
9700;SDS011;4889;48.620;7.892;2023-06-22T08:55:03;3.08;;;2.15;;
9700;SDS011;4889;48.620;7.892;2023-06-22T08:57:28;2.92;;;1.80;;
9700;SDS011;4889;48.620;7.892;2023-06-22T08:59:55;0.60;;;0.30;;
9700;SDS011;4889;48.620;7.892;2023-06-22T09:02:23;0.60;;;0.40;;
9700;SDS011;4889;48.620;7.892;2023-06-22T09:04:48;1.02;;;0.93;;
9700;SDS011;4889;48.620;7.892;2023-06-22T09:07:20;0.60;;;0.25;;
9700;SDS011;4889;48.620;7.892;2023-06-22T09:09:48;0.60;;;0.30;;
9700;SDS011;4889;48.620;7.892;2023-06-22T09:12:13;0.60;;;0.30;;
9700;SDS011;4889;48.620;7.892;2023-06-22T09:14:39;0.60;;;0.30;;
9700;SDS011;4889;48.620;7.892;2023-06-22T09:17:04;0.60;;;0.20;;
9700;SDS011;4889;48.620;7.892;2023-06-22T09:19:29;0.60;;;0.20;;
9700;SDS011;4889;48.620;7.892;2023-06-22T09:21:54;0.60;;;0.30;;
9700;SDS011;4889;48.620;7.892;2023-06-22T09:24:19;0.60;;;0.30;;
9700;SDS011;4889;48.620;7.892;2023-06-22T09:26:45;0.60;;;0.20;;
9700;SDS011;4889;48.620;7.892;2023-06-22T09:29:10;0.80;;;0.57;;
9700;SDS011;4889;48.620;7.892;2023-06-22T09:31:35;0.60;;;0.30;;
9700;SDS011;4889;48.620;7.892;2023-06-22T09:34:01;1.48;;;1.20;;
9700;SDS011;4889;48.620;7.892;2023-06-22T09:36:26;1.23;;;0.73;;
9700;SDS011;4889;48.620;7.892;2023-06-22T09:38:51;0.82;;;0.60;;
9700;SDS011;4889;48.620;7.892;2023-06-22T09:41:20;0.60;;;0.30;;
9700;SDS011;4889;48.620;7.892;2023-06-22T09:43:46;0.90;;;0.73;;
9700;SDS011;4889;48.620;7.892;2023-06-22T09:46:11;0.60;;;0.30;;
9700;SDS011;4889;48.620;7.892;2023-06-22T09:48:36;0.60;;;0.30;;
9700;SDS011;4889;48.620;7.892;2023-06-22T09:51:02;0.60;;;0.20;;
9700;SDS011;4889;48.620;7.892;2023-06-22T09:53:27;0.60;;;0.30;;
9700;SDS011;4889;48.620;7.892;2023-06-22T09:55:53;0.60;;;0.20;;
9700;SDS011;4889;48.620;7.892;2023-06-22T09:58:18;0.98;;;0.68;;
9700;SDS011;4889;48.620;7.892;2023-06-22T10:00:44;7.63;;;0.60;;
9700;SDS011;4889;48.620;7.892;2023-06-22T10:03:09;4.85;;;3.28;;
9700;SDS011;4889;48.620;7.892;2023-06-22T10:05:34;0.60;;;0.40;;
9700;SDS011;4889;48.620;7.892;2023-06-22T10:07:59;0.60;;;0.30;;
9700;SDS011;4889;48.620;7.892;2023-06-22T10:10:25;0.60;;;0.30;;
9700;SDS011;4889;48.620;7.892;2023-06-22T10:12:56;0.60;;;0.22;;
9700;SDS011;4889;48.620;7.892;2023-06-22T10:15:22;0.60;;;0.30;;
9700;SDS011;4889;48.620;7.892;2023-06-22T10:17:47;0.90;;;0.75;;
9700;SDS011;4889;48.620;7.892;2023-06-22T10:20:13;0.60;;;0.30;;
9700;SDS011;4889;48.620;7.892;2023-06-22T10:22:39;0.60;;;0.22;;
9700;SDS011;4889;48.620;7.892;2023-06-22T10:25:04;0.80;;;0.65;;
9700;SDS011;4889;48.620;7.892;2023-06-22T10:27:30;3.72;;;1.85;;
9700;SDS011;4889;48.620;7.892;2023-06-22T10:29:56;0.70;;;0.40;;
9700;SDS011;4889;48.620;7.892;2023-06-22T10:32:21;0.70;;;0.38;;
9700;SDS011;4889;48.620;7.892;2023-06-22T10:34:46;0.70;;;0.30;;
9700;SDS011;4889;48.620;7.892;2023-06-22T10:37:12;0.70;;;0.30;;
9700;SDS011;4889;48.620;7.892;2023-06-22T10:39:37;1.20;;;0.80;;
9700;SDS011;4889;48.620;7.892;2023-06-22T10:42:02;3.47;;;0.87;;
9700;SDS011;4889;48.620;7.892;2023-06-22T10:44:27;1.52;;;0.88;;
9700;SDS011;4889;48.620;7.892;2023-06-22T10:46:53;0.90;;;0.30;;
9700;SDS011;4889;48.620;7.892;2023-06-22T10:49:18;1.00;;;0.30;;
9700;SDS011;4889;48.620;7.892;2023-06-22T10:51:43;0.90;;;0.30;;
9700;SDS011;4889;48.620;7.892;2023-06-22T10:54:08;1.00;;;0.30;;
9700;SDS011;4889;48.620;7.892;2023-06-22T10:56:34;1.00;;;0.30;;
9700;SDS011;4889;48.620;7.892;2023-06-22T10:58:59;1.10;;;0.30;;
9700;SDS011;4889;48.620;7.892;2023-06-22T11:01:24;2.80;;;0.60;;
9700;SDS011;4889;48.620;7.892;2023-06-22T11:03:49;3.10;;;0.87;;
9700;SDS011;4889;48.620;7.892;2023-06-22T11:06:14;2.58;;;0.30;;
9700;SDS011;4889;48.620;7.892;2023-06-22T11:08:40;2.80;;;0.30;;
9700;SDS011;4889;48.620;7.892;2023-06-22T11:11:05;2.80;;;0.50;;
9700;SDS011;4889;48.620;7.892;2023-06-22T11:13:30;3.70;;;0.30;;
9700;SDS011;4889;48.620;7.892;2023-06-22T11:15:55;4.60;;;0.30;;
9700;SDS011;4889;48.620;7.892;2023-06-22T11:18:21;13.40;;;1.60;;
9700;SDS011;4889;48.620;7.892;2023-06-22T11:20:48;5.43;;;0.50;;
9700;SDS011;4889;48.620;7.892;2023-06-22T11:23:14;6.40;;;0.63;;
9700;SDS011;4889;48.620;7.892;2023-06-22T11:25:39;5.30;;;0.80;;
9700;SDS011;4889;48.620;7.892;2023-06-22T11:28:06;4.55;;;0.30;;
9700;SDS011;4889;48.620;7.892;2023-06-22T11:30:32;4.30;;;0.30;;
9700;SDS011;4889;48.620;7.892;2023-06-22T11:32:58;5.82;;;0.98;;
9700;SDS011;4889;48.620;7.892;2023-06-22T11:35:23;6.25;;;0.70;;
9700;SDS011;4889;48.620;7.892;2023-06-22T11:37:48;5.38;;;0.93;;
9700;SDS011;4889;48.620;7.892;2023-06-22T11:40:14;4.28;;;0.40;;
9700;SDS011;4889;48.620;7.892;2023-06-22T11:42:39;4.90;;;0.93;;
9700;SDS011;4889;48.620;7.892;2023-06-22T11:45:04;4.55;;;1.13;;
9700;SDS011;4889;48.620;7.892;2023-06-22T11:47:30;4.25;;;1.30;;
9700;SDS011;4889;48.620;7.892;2023-06-22T11:49:55;3.50;;;0.82;;
9700;SDS011;4889;48.620;7.892;2023-06-22T11:52:20;3.10;;;0.30;;
9700;SDS011;4889;48.620;7.892;2023-06-22T11:54:46;4.07;;;1.05;;
9700;SDS011;4889;48.620;7.892;2023-06-22T11:57:11;4.80;;;2.13;;
9700;SDS011;4889;48.620;7.892;2023-06-22T11:59:36;6.63;;;1.33;;
9700;SDS011;4889;48.620;7.892;2023-06-22T12:02:01;3.10;;;0.70;;
9700;SDS011;4889;48.620;7.892;2023-06-22T12:04:27;2.50;;;0.55;;
9700;SDS011;4889;48.620;7.892;2023-06-22T12:06:52;2.28;;;0.65;;
9700;SDS011;4889;48.620;7.892;2023-06-22T12:09:17;3.97;;;0.73;;
9700;SDS011;4889;48.620;7.892;2023-06-22T12:11:42;3.55;;;1.50;;
9700;SDS011;4889;48.620;7.892;2023-06-22T12:14:08;2.90;;;0.60;;
9700;SDS011;4889;48.620;7.892;2023-06-22T12:16:33;2.10;;;0.75;;
9700;SDS011;4889;48.620;7.892;2023-06-22T12:18:58;1.95;;;0.70;;
9700;SDS011;4889;48.620;7.892;2023-06-22T12:21:23;3.70;;;0.73;;
9700;SDS011;4889;48.620;7.892;2023-06-22T12:23:48;2.55;;;0.57;;
9700;SDS011;4889;48.620;7.892;2023-06-22T12:26:14;2.20;;;0.30;;
9700;SDS011;4889;48.620;7.892;2023-06-22T12:28:39;3.13;;;1.75;;
9700;SDS011;4889;48.620;7.892;2023-06-22T12:31:05;2.72;;;0.30;;
9700;SDS011;4889;48.620;7.892;2023-06-22T12:33:30;3.60;;;0.30;;
9700;SDS011;4889;48.620;7.892;2023-06-22T12:35:55;5.88;;;0.95;;
9700;SDS011;4889;48.620;7.892;2023-06-22T12:38:21;5.22;;;0.40;;
9700;SDS011;4889;48.620;7.892;2023-06-22T12:40:46;5.03;;;0.30;;
9700;SDS011;4889;48.620;7.892;2023-06-22T12:43:12;5.72;;;1.10;;
9700;SDS011;4889;48.620;7.892;2023-06-22T12:45:37;5.47;;;0.50;;
9700;SDS011;4889;48.620;7.892;2023-06-22T12:48:02;7.43;;;1.52;;
9700;SDS011;4889;48.620;7.892;2023-06-22T12:50:28;5.30;;;0.73;;
9700;SDS011;4889;48.620;7.892;2023-06-22T12:52:53;5.00;;;0.67;;
9700;SDS011;4889;48.620;7.892;2023-06-22T12:55:18;13.32;;;1.80;;
9700;SDS011;4889;48.620;7.892;2023-06-22T12:57:43;5.65;;;0.57;;
9700;SDS011;4889;48.620;7.892;2023-06-22T13:00:09;9.43;;;1.40;;
9700;SDS011;4889;48.620;7.892;2023-06-22T13:02:35;13.55;;;2.17;;
9700;SDS011;4889;48.620;7.892;2023-06-22T13:05:01;14.18;;;2.45;;
9700;SDS011;4889;48.620;7.892;2023-06-22T13:07:26;12.88;;;2.83;;
9700;SDS011;4889;48.620;7.892;2023-06-22T13:09:51;12.65;;;2.53;;
9700;SDS011;4889;48.620;7.892;2023-06-22T13:12:17;6.32;;;1.67;;
9700;SDS011;4889;48.620;7.892;2023-06-22T13:14:42;5.38;;;0.98;;
9700;SDS011;4889;48.620;7.892;2023-06-22T13:17:08;6.30;;;1.60;;
9700;SDS011;4889;48.620;7.892;2023-06-22T13:19:33;4.97;;;0.70;;
9700;SDS011;4889;48.620;7.892;2023-06-22T13:21:59;5.35;;;1.42;;
9700;SDS011;4889;48.620;7.892;2023-06-22T13:24:24;6.53;;;1.50;;
9700;SDS011;4889;48.620;7.892;2023-06-22T13:26:50;9.07;;;2.42;;
9700;SDS011;4889;48.620;7.892;2023-06-22T13:29:15;4.60;;;0.57;;
9700;SDS011;4889;48.620;7.892;2023-06-22T13:31:40;12.60;;;2.95;;
9700;SDS011;4889;48.620;7.892;2023-06-22T13:34:05;5.60;;;0.90;;
9700;SDS011;4889;48.620;7.892;2023-06-22T13:36:31;4.63;;;0.30;;
9700;SDS011;4889;48.620;7.892;2023-06-22T13:38:56;6.82;;;2.63;;
9700;SDS011;4889;48.620;7.892;2023-06-22T13:41:22;5.30;;;0.40;;
9700;SDS011;4889;48.620;7.892;2023-06-22T13:43:47;7.25;;;1.20;;
9700;SDS011;4889;48.620;7.892;2023-06-22T13:46:12;6.22;;;0.88;;
9700;SDS011;4889;48.620;7.892;2023-06-22T13:48:37;14.80;;;4.20;;
9700;SDS011;4889;48.620;7.892;2023-06-22T13:51:03;19.35;;;2.95;;
9700;SDS011;4889;48.620;7.892;2023-06-22T13:53:28;6.55;;;1.05;;
9700;SDS011;4889;48.620;7.892;2023-06-22T13:55:53;8.70;;;1.27;;
9700;SDS011;4889;48.620;7.892;2023-06-22T13:58:18;9.37;;;1.97;;
9700;SDS011;4889;48.620;7.892;2023-06-22T14:00:45;5.22;;;0.40;;
9700;SDS011;4889;48.620;7.892;2023-06-22T14:03:10;6.57;;;1.20;;
9700;SDS011;4889;48.620;7.892;2023-06-22T14:05:35;7.95;;;2.53;;
9700;SDS011;4889;48.620;7.892;2023-06-22T14:08:00;6.78;;;1.80;;
9700;SDS011;4889;48.620;7.892;2023-06-22T14:10:26;8.03;;;1.93;;
9700;SDS011;4889;48.620;7.892;2023-06-22T14:12:51;5.60;;;0.50;;
9700;SDS011;4889;48.620;7.892;2023-06-22T14:15:17;8.10;;;1.65;;
9700;SDS011;4889;48.620;7.892;2023-06-22T14:17:43;7.25;;;1.48;;
9700;SDS011;4889;48.620;7.892;2023-06-22T14:20:08;10.40;;;1.53;;
9700;SDS011;4889;48.620;7.892;2023-06-22T14:22:33;5.40;;;0.40;;
9700;SDS011;4889;48.620;7.892;2023-06-22T14:25:00;5.50;;;0.52;;
9700;SDS011;4889;48.620;7.892;2023-06-22T14:27:26;8.55;;;2.25;;
9700;SDS011;4889;48.620;7.892;2023-06-22T14:29:51;5.88;;;0.77;;
9700;SDS011;4889;48.620;7.892;2023-06-22T14:32:17;5.75;;;0.63;;
9700;SDS011;4889;48.620;7.892;2023-06-22T14:34:42;5.40;;;0.77;;
9700;SDS011;4889;48.620;7.892;2023-06-22T14:37:08;20.92;;;2.28;;
9700;SDS011;4889;48.620;7.892;2023-06-22T14:39:35;6.68;;;1.15;;
9700;SDS011;4889;48.620;7.892;2023-06-22T14:42:00;8.02;;;1.70;;
9700;SDS011;4889;48.620;7.892;2023-06-22T14:44:31;4.90;;;0.95;;
9700;SDS011;4889;48.620;7.892;2023-06-22T14:46:56;5.25;;;0.98;;
9700;SDS011;4889;48.620;7.892;2023-06-22T14:49:22;6.10;;;1.15;;
9700;SDS011;4889;48.620;7.892;2023-06-22T14:51:47;35.97;;;2.05;;
9700;SDS011;4889;48.620;7.892;2023-06-22T14:54:12;4.60;;;0.47;;
9700;SDS011;4889;48.620;7.892;2023-06-22T14:56:38;5.00;;;1.08;;
9700;SDS011;4889;48.620;7.892;2023-06-22T14:59:03;4.43;;;0.30;;
9700;SDS011;4889;48.620;7.892;2023-06-22T15:01:28;5.55;;;1.05;;
9700;SDS011;4889;48.620;7.892;2023-06-22T15:03:54;7.57;;;1.55;;
9700;SDS011;4889;48.620;7.892;2023-06-22T15:06:19;6.07;;;1.47;;
9700;SDS011;4889;48.620;7.892;2023-06-22T15:08:44;12.67;;;2.87;;
9700;SDS011;4889;48.620;7.892;2023-06-22T15:11:10;4.80;;;1.00;;
9700;SDS011;4889;48.620;7.892;2023-06-22T15:13:35;11.82;;;2.92;;
9700;SDS011;4889;48.620;7.892;2023-06-22T15:16:03;36.20;;;19.80;;